Nearby METAR Reports

 

KBVO - Bartlesville, Oklahoma, USA
Distance from station: WNW 10mi, 16km
Updated: Wed, 20-Mar-2019 12:53pm CDT
Overcast
Overcast
 Wind from WNW
Wind: WNW 9 mph , 15 km/h
Temperature: 54°F , 12°C
Dew Point: 37°F , 3°C
Humidity: 54%
Barometer: 30.25 inHg , 1024.4 hPa
Clouds: Overcast
Visibility: 10 miles , 16 km
Cloud details: Partly cloudy 4000 ft
Overcast 5000 ft
2019/03/20 17:53 KBVO 201753Z 30008KT 270V330 10SM SCT040 OVC050 12/03 A3025 RMK AO2 SLP239 T01170028 10128 20067 58010
KCFV - Coffeyville, Kansas, USA
Distance from station: NNE 31mi, 49km
Updated: Wed, 20-Mar-2019 12:52pm CDT
Overcast
Overcast
 Wind from NW
Wind: NW 12 mph , 19 km/h
Temperature: 54°F , 12°C
Dew Point: 39°F , 4°C
Humidity: 58%
Barometer: 30.21 inHg , 1023 hPa
Clouds: Overcast
Visibility: 10 miles , 16 km
Cloud details: Mostly cloudy 3700 ft
Overcast 5000 ft
2019/03/20 17:52 KCFV 201752Z AUTO 31010KT 10SM BKN037 OVC050 12/04 A3021 RMK AO2 SLP230 T01170039 10122 20061 58011
 
KIDP - Independence, Kansas, USA
Distance from station: N 32mi, 52km
Updated: Wed, 20-Mar-2019 12:55pm CDT
Overcast
Overcast
 Wind from WNW
Wind: WNW 12 mph , 19 km/h, Gust: 20 mph , 31 km/h
Temperature: 52°F , 11°C
Dew Point: 39°F , 4°C
Humidity: 62%
Barometer: 30.22 inHg , 1023.4 hPa
Clouds: Overcast
Visibility: 10 miles , 16 km
Cloud details: Partly cloudy 3700 ft
Overcast 4900 ft
2019/03/20 17:55 KIDP 201755Z AUTO 29010G17KT 10SM SCT037 OVC049 11/04 A3022 RMK AO2 T01150044 10119 20053
KGCM - Claremore, Oklahoma, USA
Distance from station: SE 35mi, 56km
Updated: Wed, 20-Mar-2019 12:55pm CDT
Mostly cloudy
Mostly cloudy
 Wind from WNW
Wind: WNW 7 mph , 11 km/h
Temperature: 54°F , 12°C
Dew Point: 41°F , 5°C
Humidity: 63%
Barometer: 30.25 inHg , 1024.4 hPa
Clouds: Mostly cloudy
Visibility: 10 miles , 16 km
Cloud details: Partly cloudy 3200 ft
Mostly cloudy 4000 ft
2019/03/20 17:55 KGCM 201755Z AUTO 29006KT 10SM SCT032 BKN040 12/05 A3025 RMK AO2 TSNO
 
KTUL - Tulsa, Oklahoma, USA
Distance from station: S 35mi, 56km
Updated: Wed, 20-Mar-2019 12:53pm CDT
Mostly cloudy
Mostly cloudy
 Wind from NW
Wind: NW 12 mph , 19 km/h
Temperature: 55°F , 13°C
Dew Point: 39°F , 4°C
Humidity: 55%
Barometer: 30.25 inHg , 1024.4 hPa
Clouds: Mostly cloudy
Visibility: 10 miles , 16 km
Cloud details: Partly cloudy 3600 ft
Mostly cloudy 4700 ft
2019/03/20 17:53 KTUL 201753Z 32010KT 10SM SCT036 BKN047 13/04 A3025 RMK AO2 SLP240 T01330039 10133 20072 58010
KRVS - Tulsa, Oklahoma, USA
Distance from station: S 46mi, 74km
Updated: Wed, 20-Mar-2019 12:53pm CDT
Overcast
Overcast
 Wind from WNW
Wind: WNW 8 mph , 13 km/h, Gust: 16 mph , 26 km/h
Temperature: 55°F , 13°C
Dew Point: 39°F , 4°C
Humidity: 55%
Barometer: 30.25 inHg , 1024.4 hPa
Clouds: Overcast
Visibility: 10 miles , 16 km
Cloud details: Mostly cloudy 3700 ft
Overcast 4800 ft
2019/03/20 17:53 KRVS 201753Z 29007G14KT 250V360 10SM BKN037 OVC048 13/04 A3025 RMK AO2 SLP253 T01280039 10128 20078 58011
 
KPPF - Parsons, Kansas, USA
Distance from station: NNE 48mi, 76km
Updated: Wed, 20-Mar-2019 12:52pm CDT
Overcast
Overcast
 Wind from WNW
Wind: WNW 9 mph , 15 km/h
Temperature: 52°F , 11°C
Dew Point: 39°F , 4°C
Humidity: 62%
Barometer: 30.21 inHg , 1023 hPa
Clouds: Overcast
Visibility: 10 miles , 16 km
Cloud details: Few Clouds 2900 ft
Partly cloudy 3700 ft
Overcast 6000 ft
2019/03/20 17:52 KPPF 201752Z AUTO 30008KT 10SM FEW029 SCT037 OVC060 11/04 A3021 RMK AO2 SLP231 T01110044 10117 20056 58009
KGMJ - Grove, Oklahoma, USA
Distance from station: E 63mi, 101km
Updated: Wed, 20-Mar-2019 12:55pm CDT
Overcast
Overcast
 Wind from W
Wind: W 7 mph , 11 km/h
Temperature: 48°F , 9°C
Wind Chill: 45°F , 7°C
Dew Point: 37°F , 3°C
Humidity: 66%
Barometer: 30.23 inHg , 1023.7 hPa
Clouds: Overcast
Visibility: 10 miles , 16 km
Cloud details: Partly cloudy 2500 ft
Mostly cloudy 4200 ft
Overcast 4800 ft
2019/03/20 17:55 KGMJ 201755Z AUTO 27006KT 10SM SCT025 BKN042 OVC048 09/03 A3023 RMK AO2
 
KPNC - Ponca City, Oklahoma, USA
Distance from station: W 69mi, 111km
Updated: Wed, 20-Mar-2019 12:53pm CDT
Partly cloudy
Partly cloudy
 Wind from WNW
Wind: WNW 10 mph , 17 km/h, Gust: 21 mph , 33 km/h
Temperature: 54°F , 12°C
Dew Point: 36°F , 2°C
Humidity: 51%
Barometer: 30.25 inHg , 1024.4 hPa
Clouds: Partly cloudy
Visibility: 10 miles , 16 km
Cloud details: Partly cloudy 3800 ft
2019/03/20 17:53 KPNC 201753Z AUTO 30009G18KT 10SM SCT038 12/02 A3025 RMK AO2 SLP242 T01220022 10133 20039 58009
KCNU - Chanute, Kansas, USA
Distance from station: NNE 69mi, 112km
Updated: Wed, 20-Mar-2019 12:52pm CDT
Mostly cloudy
Mostly cloudy
 Wind from WNW
Wind: WNW 13 mph , 20 km/h
Temperature: 54°F , 12°C
Dew Point: 41°F , 5°C
Humidity: 63%
Barometer: 30.20 inHg , 1022.7 hPa
Clouds: Mostly cloudy
Visibility: 10 miles , 16 km
Cloud details: Few Clouds 2500 ft
Partly cloudy 3000 ft
Mostly cloudy 4300 ft
2019/03/20 17:52 KCNU 201752Z AUTO 30011KT 10SM FEW025 SCT030 BKN043 12/05 A3020 RMK AO2 SLP224 T01220050 10122 20072 58008